Aviation Digital Data Service (ADDS)

Output produced by METARs form (1554 UTC 23 April 2017)
found at http://www.aviationweather.gov/adds/metars/
 
MYGF 230930Z 2312/2412 15010KT 9999 FEW018CB SCT020 BKN120 
     PROB30 
     TEMPO 2312/2318 5000 TSRA SCT015CB BKN018
       
MYNN 230930Z 2312/2412 13010KT 9999 SCT018 BKN080 
     PROB30 
     TEMPO 2315/2319 7000 FEW018CB BKN020 BKN120